London, Canada
Current Conditions -  °F | °C
As of 7:00 AM on Thursday 29 Jan 2015 (Local Time) from CYXU Reporting Station
Overcast Overcast  
Wind Chill: 13°   Ceiling: 6400
Heat Index: 25°   Visibility: 15mi
Dew Point: 12°   Wind: 14mph
Humidity: 59%   Direction: 130°SE
Pressure: 29.95"   Gusts: 20mph
Location:  42.99°N, 81.25°W
Report Text: CYXU 291200Z 13012G17KT 15SM OVC064 M04/M11 A2995 RMK SC8 SLP156
Loading
Personal Weather Stations






























Interactive Weather Map New forecast layout! Learn more

10-Day Weather Forecast

Advertisements
Track Severe Weather on mobile